Forside
METAR-TAF:

METAR-TAF

Lufthavne :

Phillip Goldston

Belize City, Belize

Breddekreds: 17-32N, længdekreds: 088-18W, højde: 5 m

Aktuelle vejr

Denne rapport blev lavet for 9 timer og 55 minutter siden, kl. 00:00 UTC
Vind 3 kt fra sydøst
Temperatur 27°C
Fugtighed 74%
Tryk 1013 hPa
Sigt 10 km eller mere
Nogle få skyer i en højde af 2500 ft

METAR: MZBZ 200000Z 14003KT 9999 FEW025 27/22 A2993 Q1013 NOSIG

Tid: 03:55 (09:55 UTC)

Vejrudsigter

Denne rapport blev lavet for 6 timer og 55 minutter siden, kl. 03:00 UTC
Foreløbig gælder fra 20 på 06 UTC til 21 på 06 UTC
Vind 5 kt fra varierende retninger
Sigt 10 km eller mere
Spredte skyer i en højde af 2400 ft
Spredte skyer i en højde af 4500 ft
Sandsynlighed 30% :
Midlertidig
fra 20 på 15 UTC til 20 på 20 UTC
Sigt: 5000 m
Brudte skyer i en højde af 1500 ft
regnbyger
ændring
fra 20 på 14 UTC til 20 på 18 UTC
Vind 6 kt fra østnordøst

TAF: MZBZ 200300Z 2006/2106 VRB05KT 9999 SCT024 SCT045 PROB30 TEMPO 2015/2020 5000 SHRA BKN015 BECMG 2014/2018 07006KT

Vejrobservationer og prognoser fra mere end 4000 lufthavne (METAR og TAF).

De gule og røde prikker repræsenterer de meteorologiske stationer.

Flyt musen over at se navnet på stationen.

Så klik over at se vejr observationer og prognoser.

At skifte det kort: Klik på de grønne knapper med et sort kors for at zoome ind; på den grønne knap med en bindestreg for at zoome ud; eller på de grønne pile for tilstødende kort.


METAR-TAF: